sensor_id;sensor_type;location;lat;lon;timestamp;temperature;humidity
13806;DHT22;6974;53.606;9.872;2023-10-31T00:02:23;13.10;99.90
13806;DHT22;6974;53.606;9.872;2023-10-31T00:04:50;13.10;99.90
13806;DHT22;6974;53.606;9.872;2023-10-31T00:07:19;13.10;99.90
13806;DHT22;6974;53.606;9.872;2023-10-31T00:09:46;13.10;99.90
13806;DHT22;6974;53.606;9.872;2023-10-31T00:12:13;13.10;99.90
13806;DHT22;6974;53.606;9.872;2023-10-31T00:14:40;13.10;99.90
13806;DHT22;6974;53.606;9.872;2023-10-31T00:17:07;13.00;99.90
13806;DHT22;6974;53.606;9.872;2023-10-31T00:19:34;13.00;99.90
13806;DHT22;6974;53.606;9.872;2023-10-31T00:22:02;13.10;99.90
13806;DHT22;6974;53.606;9.872;2023-10-31T00:24:30;13.10;99.90
13806;DHT22;6974;53.606;9.872;2023-10-31T00:26:58;13.20;99.90
13806;DHT22;6974;53.606;9.872;2023-10-31T00:29:25;13.10;99.90
13806;DHT22;6974;53.606;9.872;2023-10-31T00:31:51;13.20;99.90
13806;DHT22;6974;53.606;9.872;2023-10-31T00:34:19;13.10;99.90
13806;DHT22;6974;53.606;9.872;2023-10-31T00:36:47;13.10;99.90
13806;DHT22;6974;53.606;9.872;2023-10-31T00:39:15;13.10;99.90
13806;DHT22;6974;53.606;9.872;2023-10-31T00:41:45;13.10;99.90
13806;DHT22;6974;53.606;9.872;2023-10-31T00:44:12;13.20;99.90
13806;DHT22;6974;53.606;9.872;2023-10-31T00:46:40;13.10;99.90
13806;DHT22;6974;53.606;9.872;2023-10-31T00:49:08;13.10;99.90
13806;DHT22;6974;53.606;9.872;2023-10-31T00:51:35;13.20;99.90
13806;DHT22;6974;53.606;9.872;2023-10-31T00:54:03;13.00;99.90
13806;DHT22;6974;53.606;9.872;2023-10-31T00:56:31;13.10;99.90
13806;DHT22;6974;53.606;9.872;2023-10-31T00:58:59;13.00;99.90
13806;DHT22;6974;53.606;9.872;2023-10-31T01:01:27;13.10;99.90
13806;DHT22;6974;53.606;9.872;2023-10-31T01:03:54;13.10;99.90
13806;DHT22;6974;53.606;9.872;2023-10-31T01:06:21;13.10;99.90
13806;DHT22;6974;53.606;9.872;2023-10-31T01:08:48;13.00;99.90
13806;DHT22;6974;53.606;9.872;2023-10-31T01:11:15;13.00;99.90
13806;DHT22;6974;53.606;9.872;2023-10-31T01:13:42;13.00;99.90
13806;DHT22;6974;53.606;9.872;2023-10-31T01:16:10;13.00;99.90
13806;DHT22;6974;53.606;9.872;2023-10-31T01:18:37;13.00;99.90
13806;DHT22;6974;53.606;9.872;2023-10-31T01:21:04;13.00;99.90
13806;DHT22;6974;53.606;9.872;2023-10-31T01:23:31;13.00;99.90
13806;DHT22;6974;53.606;9.872;2023-10-31T01:25:59;13.00;99.90
13806;DHT22;6974;53.606;9.872;2023-10-31T01:28:25;13.00;99.90
13806;DHT22;6974;53.606;9.872;2023-10-31T01:30:53;13.00;99.90
13806;DHT22;6974;53.606;9.872;2023-10-31T01:33:21;13.10;99.90
13806;DHT22;6974;53.606;9.872;2023-10-31T01:35:48;13.10;99.90
13806;DHT22;6974;53.606;9.872;2023-10-31T01:38:15;13.10;99.90
13806;DHT22;6974;53.606;9.872;2023-10-31T01:40:42;13.00;99.90
13806;DHT22;6974;53.606;9.872;2023-10-31T01:43:11;13.00;99.90
13806;DHT22;6974;53.606;9.872;2023-10-31T01:45:38;13.00;99.90
13806;DHT22;6974;53.606;9.872;2023-10-31T01:48:05;13.00;99.90
13806;DHT22;6974;53.606;9.872;2023-10-31T01:50:33;13.00;99.90
13806;DHT22;6974;53.606;9.872;2023-10-31T01:53:00;13.00;99.90
13806;DHT22;6974;53.606;9.872;2023-10-31T01:55:27;13.00;99.90
13806;DHT22;6974;53.606;9.872;2023-10-31T01:57:55;13.00;99.90
13806;DHT22;6974;53.606;9.872;2023-10-31T02:00:22;13.00;99.90
13806;DHT22;6974;53.606;9.872;2023-10-31T02:02:52;13.10;99.90
13806;DHT22;6974;53.606;9.872;2023-10-31T02:05:21;13.10;99.90
13806;DHT22;6974;53.606;9.872;2023-10-31T02:07:50;13.10;99.90
13806;DHT22;6974;53.606;9.872;2023-10-31T02:10:17;13.00;99.90
13806;DHT22;6974;53.606;9.872;2023-10-31T02:12:44;13.00;99.90
13806;DHT22;6974;53.606;9.872;2023-10-31T02:15:11;13.00;99.90
13806;DHT22;6974;53.606;9.872;2023-10-31T02:17:38;13.00;99.90
13806;DHT22;6974;53.606;9.872;2023-10-31T02:20:06;13.00;99.90
13806;DHT22;6974;53.606;9.872;2023-10-31T02:22:36;12.90;99.90
13806;DHT22;6974;53.606;9.872;2023-10-31T02:25:03;13.00;99.90
13806;DHT22;6974;53.606;9.872;2023-10-31T02:27:42;13.00;99.90
13806;DHT22;6974;53.606;9.872;2023-10-31T02:30:10;13.00;99.90
13806;DHT22;6974;53.606;9.872;2023-10-31T02:32:37;13.00;99.90
13806;DHT22;6974;53.606;9.872;2023-10-31T02:35:05;13.00;99.90
13806;DHT22;6974;53.606;9.872;2023-10-31T02:37:32;13.00;99.90
13806;DHT22;6974;53.606;9.872;2023-10-31T02:40:00;12.90;99.90
13806;DHT22;6974;53.606;9.872;2023-10-31T02:42:27;12.90;99.90
13806;DHT22;6974;53.606;9.872;2023-10-31T02:44:54;13.00;99.90
13806;DHT22;6974;53.606;9.872;2023-10-31T02:47:21;12.90;99.90
13806;DHT22;6974;53.606;9.872;2023-10-31T02:49:48;13.00;99.90
13806;DHT22;6974;53.606;9.872;2023-10-31T02:52:17;13.00;99.90
13806;DHT22;6974;53.606;9.872;2023-10-31T02:54:44;12.90;99.90
13806;DHT22;6974;53.606;9.872;2023-10-31T02:57:12;13.00;99.90
13806;DHT22;6974;53.606;9.872;2023-10-31T02:59:40;13.00;99.90
13806;DHT22;6974;53.606;9.872;2023-10-31T03:02:07;13.00;99.90
13806;DHT22;6974;53.606;9.872;2023-10-31T03:04:34;13.00;99.90
13806;DHT22;6974;53.606;9.872;2023-10-31T03:07:01;13.00;99.90
13806;DHT22;6974;53.606;9.872;2023-10-31T03:09:28;13.00;99.90
13806;DHT22;6974;53.606;9.872;2023-10-31T03:11:55;13.00;99.90
13806;DHT22;6974;53.606;9.872;2023-10-31T03:14:23;13.00;99.90
13806;DHT22;6974;53.606;9.872;2023-10-31T03:16:53;13.00;99.90
13806;DHT22;6974;53.606;9.872;2023-10-31T03:19:20;13.00;99.90
13806;DHT22;6974;53.606;9.872;2023-10-31T03:21:47;13.00;99.90
13806;DHT22;6974;53.606;9.872;2023-10-31T03:24:14;13.10;99.90
13806;DHT22;6974;53.606;9.872;2023-10-31T03:26:41;13.10;99.90
13806;DHT22;6974;53.606;9.872;2023-10-31T03:29:08;13.10;99.90
13806;DHT22;6974;53.606;9.872;2023-10-31T03:31:36;13.10;99.90
13806;DHT22;6974;53.606;9.872;2023-10-31T03:34:04;13.10;99.90
13806;DHT22;6974;53.606;9.872;2023-10-31T03:36:31;13.10;99.90
13806;DHT22;6974;53.606;9.872;2023-10-31T03:38:58;13.10;99.90
13806;DHT22;6974;53.606;9.872;2023-10-31T03:41:25;13.10;99.90
13806;DHT22;6974;53.606;9.872;2023-10-31T03:43:52;13.10;99.90
13806;DHT22;6974;53.606;9.872;2023-10-31T03:46:19;13.10;99.90
13806;DHT22;6974;53.606;9.872;2023-10-31T03:48:48;13.10;99.90
13806;DHT22;6974;53.606;9.872;2023-10-31T03:51:15;13.10;99.90
13806;DHT22;6974;53.606;9.872;2023-10-31T03:53:42;13.10;99.90
13806;DHT22;6974;53.606;9.872;2023-10-31T03:56:09;13.10;99.90
13806;DHT22;6974;53.606;9.872;2023-10-31T03:58:36;13.10;99.90
13806;DHT22;6974;53.606;9.872;2023-10-31T04:01:03;13.10;99.90
13806;DHT22;6974;53.606;9.872;2023-10-31T04:03:30;13.10;99.90
13806;DHT22;6974;53.606;9.872;2023-10-31T04:05:58;13.10;99.90
13806;DHT22;6974;53.606;9.872;2023-10-31T04:08:25;13.20;99.90
13806;DHT22;6974;53.606;9.872;2023-10-31T04:10:52;13.10;99.90
13806;DHT22;6974;53.606;9.872;2023-10-31T04:13:20;13.10;99.90
13806;DHT22;6974;53.606;9.872;2023-10-31T04:15:47;13.10;99.90
13806;DHT22;6974;53.606;9.872;2023-10-31T04:18:14;13.10;99.90
13806;DHT22;6974;53.606;9.872;2023-10-31T04:20:42;13.10;99.90
13806;DHT22;6974;53.606;9.872;2023-10-31T04:23:11;13.10;99.90
13806;DHT22;6974;53.606;9.872;2023-10-31T04:25:38;13.10;99.90
13806;DHT22;6974;53.606;9.872;2023-10-31T04:28:05;13.20;99.90
13806;DHT22;6974;53.606;9.872;2023-10-31T04:30:34;13.20;99.90
13806;DHT22;6974;53.606;9.872;2023-10-31T04:33:01;13.20;99.90
13806;DHT22;6974;53.606;9.872;2023-10-31T04:35:28;13.10;99.90
13806;DHT22;6974;53.606;9.872;2023-10-31T04:37:56;13.10;99.90
13806;DHT22;6974;53.606;9.872;2023-10-31T04:40:24;13.20;99.90
13806;DHT22;6974;53.606;9.872;2023-10-31T04:42:51;13.10;99.90
13806;DHT22;6974;53.606;9.872;2023-10-31T04:45:18;13.10;99.90
13806;DHT22;6974;53.606;9.872;2023-10-31T04:47:46;13.20;99.90
13806;DHT22;6974;53.606;9.872;2023-10-31T04:50:13;13.20;99.90
13806;DHT22;6974;53.606;9.872;2023-10-31T04:52:40;13.20;99.90
13806;DHT22;6974;53.606;9.872;2023-10-31T04:55:08;13.20;99.90
13806;DHT22;6974;53.606;9.872;2023-10-31T04:57:37;13.20;99.90
13806;DHT22;6974;53.606;9.872;2023-10-31T05:00:05;13.20;99.90
13806;DHT22;6974;53.606;9.872;2023-10-31T05:02:34;13.20;99.90
13806;DHT22;6974;53.606;9.872;2023-10-31T05:05:01;13.20;99.90
13806;DHT22;6974;53.606;9.872;2023-10-31T05:07:28;13.20;99.90
13806;DHT22;6974;53.606;9.872;2023-10-31T05:09:57;13.20;99.90
13806;DHT22;6974;53.606;9.872;2023-10-31T05:12:25;13.20;99.90
13806;DHT22;6974;53.606;9.872;2023-10-31T05:14:53;13.20;99.90
13806;DHT22;6974;53.606;9.872;2023-10-31T05:17:20;13.20;99.90
13806;DHT22;6974;53.606;9.872;2023-10-31T05:19:47;13.20;99.90
13806;DHT22;6974;53.606;9.872;2023-10-31T05:22:14;13.20;99.90
13806;DHT22;6974;53.606;9.872;2023-10-31T05:24:41;13.20;99.90
13806;DHT22;6974;53.606;9.872;2023-10-31T05:27:09;13.20;99.90
13806;DHT22;6974;53.606;9.872;2023-10-31T05:29:38;13.20;99.90
13806;DHT22;6974;53.606;9.872;2023-10-31T05:32:07;13.20;99.90
13806;DHT22;6974;53.606;9.872;2023-10-31T05:34:34;13.20;99.90
13806;DHT22;6974;53.606;9.872;2023-10-31T05:37:01;13.20;99.90
13806;DHT22;6974;53.606;9.872;2023-10-31T05:39:31;13.20;99.90
13806;DHT22;6974;53.606;9.872;2023-10-31T05:41:59;13.20;99.90
13806;DHT22;6974;53.606;9.872;2023-10-31T05:44:26;13.20;99.90
13806;DHT22;6974;53.606;9.872;2023-10-31T05:46:52;13.20;99.90
13806;DHT22;6974;53.606;9.872;2023-10-31T05:49:21;13.20;99.90
13806;DHT22;6974;53.606;9.872;2023-10-31T05:51:50;13.20;99.90
13806;DHT22;6974;53.606;9.872;2023-10-31T05:54:17;13.20;99.90
13806;DHT22;6974;53.606;9.872;2023-10-31T05:56:44;13.20;99.90
13806;DHT22;6974;53.606;9.872;2023-10-31T05:59:11;13.20;99.90
13806;DHT22;6974;53.606;9.872;2023-10-31T06:01:38;13.20;99.90
13806;DHT22;6974;53.606;9.872;2023-10-31T06:04:05;13.20;99.90
13806;DHT22;6974;53.606;9.872;2023-10-31T06:06:37;13.20;99.90
13806;DHT22;6974;53.606;9.872;2023-10-31T06:09:04;13.20;99.90
13806;DHT22;6974;53.606;9.872;2023-10-31T06:11:32;13.20;99.90
13806;DHT22;6974;53.606;9.872;2023-10-31T06:13:59;13.20;99.90
13806;DHT22;6974;53.606;9.872;2023-10-31T06:16:26;13.20;99.90
13806;DHT22;6974;53.606;9.872;2023-10-31T06:18:53;13.20;99.90
13806;DHT22;6974;53.606;9.872;2023-10-31T06:21:20;13.20;99.90
13806;DHT22;6974;53.606;9.872;2023-10-31T06:23:49;13.20;99.90
13806;DHT22;6974;53.606;9.872;2023-10-31T06:26:16;13.20;99.90
13806;DHT22;6974;53.606;9.872;2023-10-31T06:28:43;13.20;99.90
13806;DHT22;6974;53.606;9.872;2023-10-31T06:31:10;13.20;99.90
13806;DHT22;6974;53.606;9.872;2023-10-31T06:33:37;13.20;99.90
13806;DHT22;6974;53.606;9.872;2023-10-31T06:36:06;13.20;99.90
13806;DHT22;6974;53.606;9.872;2023-10-31T06:38:33;13.20;99.90
13806;DHT22;6974;53.606;9.872;2023-10-31T06:41:02;13.20;99.90
13806;DHT22;6974;53.606;9.872;2023-10-31T06:43:30;13.20;99.90
13806;DHT22;6974;53.606;9.872;2023-10-31T06:45:57;13.30;99.90
13806;DHT22;6974;53.606;9.872;2023-10-31T06:48:26;13.30;99.90
13806;DHT22;6974;53.606;9.872;2023-10-31T06:50:53;13.30;99.90
13806;DHT22;6974;53.606;9.872;2023-10-31T06:53:20;13.30;99.90
13806;DHT22;6974;53.606;9.872;2023-10-31T06:55:47;13.30;99.90
13806;DHT22;6974;53.606;9.872;2023-10-31T06:58:16;13.30;99.90
13806;DHT22;6974;53.606;9.872;2023-10-31T07:00:43;13.30;99.90
13806;DHT22;6974;53.606;9.872;2023-10-31T07:03:10;13.20;99.90
13806;DHT22;6974;53.606;9.872;2023-10-31T07:05:41;13.30;99.90
13806;DHT22;6974;53.606;9.872;2023-10-31T07:08:08;13.30;99.90
13806;DHT22;6974;53.606;9.872;2023-10-31T07:10:35;13.30;99.90
13806;DHT22;6974;53.606;9.872;2023-10-31T07:13:03;13.30;99.90
13806;DHT22;6974;53.606;9.872;2023-10-31T07:15:31;13.30;99.90
13806;DHT22;6974;53.606;9.872;2023-10-31T07:18:04;13.30;99.90
13806;DHT22;6974;53.606;9.872;2023-10-31T07:20:31;13.30;99.90
13806;DHT22;6974;53.606;9.872;2023-10-31T07:22:58;13.30;99.90
13806;DHT22;6974;53.606;9.872;2023-10-31T07:25:25;13.30;99.90
13806;DHT22;6974;53.606;9.872;2023-10-31T07:27:52;13.30;99.90
13806;DHT22;6974;53.606;9.872;2023-10-31T07:30:19;13.30;99.90
13806;DHT22;6974;53.606;9.872;2023-10-31T07:32:48;13.30;99.90
13806;DHT22;6974;53.606;9.872;2023-10-31T07:35:15;13.30;99.90
13806;DHT22;6974;53.606;9.872;2023-10-31T07:37:42;13.40;99.90
13806;DHT22;6974;53.606;9.872;2023-10-31T07:40:10;13.40;99.90
13806;DHT22;6974;53.606;9.872;2023-10-31T07:42:37;13.40;99.90
13806;DHT22;6974;53.606;9.872;2023-10-31T07:45:05;13.40;99.90
13806;DHT22;6974;53.606;9.872;2023-10-31T07:47:34;13.40;99.90
13806;DHT22;6974;53.606;9.872;2023-10-31T07:50:04;13.40;99.90
13806;DHT22;6974;53.606;9.872;2023-10-31T07:52:31;13.40;99.90
13806;DHT22;6974;53.606;9.872;2023-10-31T07:54:59;13.40;99.90
13806;DHT22;6974;53.606;9.872;2023-10-31T07:57:27;13.40;99.90
13806;DHT22;6974;53.606;9.872;2023-10-31T07:59:54;13.30;99.90
13806;DHT22;6974;53.606;9.872;2023-10-31T08:02:21;13.30;99.90
13806;DHT22;6974;53.606;9.872;2023-10-31T08:04:48;13.30;99.90
13806;DHT22;6974;53.606;9.872;2023-10-31T08:07:17;13.20;99.90
13806;DHT22;6974;53.606;9.872;2023-10-31T08:09:44;13.10;99.90
13806;DHT22;6974;53.606;9.872;2023-10-31T08:12:11;13.10;99.90
13806;DHT22;6974;53.606;9.872;2023-10-31T08:14:38;13.10;99.90
13806;DHT22;6974;53.606;9.872;2023-10-31T08:17:06;13.00;99.90
13806;DHT22;6974;53.606;9.872;2023-10-31T08:19:34;12.90;99.90
13806;DHT22;6974;53.606;9.872;2023-10-31T08:22:02;12.90;99.90
13806;DHT22;6974;53.606;9.872;2023-10-31T08:24:30;12.90;99.90
13806;DHT22;6974;53.606;9.872;2023-10-31T08:26:59;12.90;99.90
13806;DHT22;6974;53.606;9.872;2023-10-31T08:29:27;12.90;99.90
13806;DHT22;6974;53.606;9.872;2023-10-31T08:31:54;12.80;99.90
13806;DHT22;6974;53.606;9.872;2023-10-31T08:34:21;12.80;99.90
13806;DHT22;6974;53.606;9.872;2023-10-31T08:36:48;12.80;99.90
13806;DHT22;6974;53.606;9.872;2023-10-31T08:39:15;12.80;99.90
13806;DHT22;6974;53.606;9.872;2023-10-31T08:41:51;12.80;99.90
13806;DHT22;6974;53.606;9.872;2023-10-31T08:44:18;12.70;99.90
13806;DHT22;6974;53.606;9.872;2023-10-31T08:46:45;12.70;99.90
13806;DHT22;6974;53.606;9.872;2023-10-31T08:49:13;12.80;99.90
13806;DHT22;6974;53.606;9.872;2023-10-31T08:51:40;12.80;99.90
13806;DHT22;6974;53.606;9.872;2023-10-31T08:54:08;12.80;99.90
13806;DHT22;6974;53.606;9.872;2023-10-31T08:56:36;12.80;99.90
13806;DHT22;6974;53.606;9.872;2023-10-31T08:59:05;12.80;99.90
13806;DHT22;6974;53.606;9.872;2023-10-31T09:01:32;12.80;99.90
13806;DHT22;6974;53.606;9.872;2023-10-31T09:04:00;12.80;99.90
13806;DHT22;6974;53.606;9.872;2023-10-31T09:06:27;12.80;99.90
13806;DHT22;6974;53.606;9.872;2023-10-31T09:08:54;12.80;99.90
13806;DHT22;6974;53.606;9.872;2023-10-31T09:11:21;12.80;99.90
13806;DHT22;6974;53.606;9.872;2023-10-31T09:13:48;12.80;99.90
13806;DHT22;6974;53.606;9.872;2023-10-31T09:16:16;12.80;99.90
13806;DHT22;6974;53.606;9.872;2023-10-31T09:18:43;12.70;99.90
13806;DHT22;6974;53.606;9.872;2023-10-31T09:21:12;12.80;99.90
13806;DHT22;6974;53.606;9.872;2023-10-31T09:23:39;12.70;99.90
13806;DHT22;6974;53.606;9.872;2023-10-31T09:26:06;12.70;99.90
13806;DHT22;6974;53.606;9.872;2023-10-31T09:28:35;12.60;99.90
13806;DHT22;6974;53.606;9.872;2023-10-31T09:31:03;12.50;99.90
13806;DHT22;6974;53.606;9.872;2023-10-31T09:33:32;12.40;99.90
13806;DHT22;6974;53.606;9.872;2023-10-31T09:35:58;12.30;99.90
13806;DHT22;6974;53.606;9.872;2023-10-31T09:38:27;12.30;99.90
13806;DHT22;6974;53.606;9.872;2023-10-31T09:40:54;12.10;99.90
13806;DHT22;6974;53.606;9.872;2023-10-31T09:43:22;12.00;99.90
13806;DHT22;6974;53.606;9.872;2023-10-31T09:45:49;12.10;99.90
13806;DHT22;6974;53.606;9.872;2023-10-31T09:48:17;12.00;99.90
13806;DHT22;6974;53.606;9.872;2023-10-31T09:50:46;11.90;99.90
13806;DHT22;6974;53.606;9.872;2023-10-31T09:53:19;11.80;99.90
13806;DHT22;6974;53.606;9.872;2023-10-31T09:55:46;11.70;99.90
13806;DHT22;6974;53.606;9.872;2023-10-31T09:58:14;11.70;99.90
13806;DHT22;6974;53.606;9.872;2023-10-31T10:00:41;11.70;99.90
13806;DHT22;6974;53.606;9.872;2023-10-31T10:03:08;11.70;99.90
13806;DHT22;6974;53.606;9.872;2023-10-31T10:05:36;11.60;99.90
13806;DHT22;6974;53.606;9.872;2023-10-31T10:08:06;11.60;99.90
13806;DHT22;6974;53.606;9.872;2023-10-31T10:10:33;11.70;99.90
13806;DHT22;6974;53.606;9.872;2023-10-31T10:13:02;11.70;99.90
13806;DHT22;6974;53.606;9.872;2023-10-31T10:15:30;11.70;99.90
13806;DHT22;6974;53.606;9.872;2023-10-31T10:17:57;11.60;99.90
13806;DHT22;6974;53.606;9.872;2023-10-31T10:20:24;11.60;99.90
13806;DHT22;6974;53.606;9.872;2023-10-31T10:22:50;11.60;99.90
13806;DHT22;6974;53.606;9.872;2023-10-31T10:25:19;11.60;99.90
13806;DHT22;6974;53.606;9.872;2023-10-31T10:27:47;11.60;99.90
13806;DHT22;6974;53.606;9.872;2023-10-31T10:30:15;11.60;99.90
13806;DHT22;6974;53.606;9.872;2023-10-31T10:32:42;11.70;99.90
13806;DHT22;6974;53.606;9.872;2023-10-31T10:35:11;11.70;99.90
13806;DHT22;6974;53.606;9.872;2023-10-31T10:37:40;11.70;99.90
13806;DHT22;6974;53.606;9.872;2023-10-31T10:40:08;11.70;99.90
13806;DHT22;6974;53.606;9.872;2023-10-31T10:42:44;11.70;99.90
13806;DHT22;6974;53.606;9.872;2023-10-31T10:45:14;11.70;99.90
13806;DHT22;6974;53.606;9.872;2023-10-31T10:47:46;11.70;99.90
13806;DHT22;6974;53.606;9.872;2023-10-31T10:50:13;11.60;99.90
13806;DHT22;6974;53.606;9.872;2023-10-31T10:52:44;11.70;99.90
13806;DHT22;6974;53.606;9.872;2023-10-31T10:55:19;11.60;99.90
13806;DHT22;6974;53.606;9.872;2023-10-31T10:57:55;11.60;99.90
13806;DHT22;6974;53.606;9.872;2023-10-31T11:00:23;11.50;99.90
13806;DHT22;6974;53.606;9.872;2023-10-31T11:02:51;11.50;99.90
13806;DHT22;6974;53.606;9.872;2023-10-31T11:05:20;11.60;99.90
13806;DHT22;6974;53.606;9.872;2023-10-31T11:07:48;11.50;99.90
13806;DHT22;6974;53.606;9.872;2023-10-31T11:10:17;11.50;99.90
13806;DHT22;6974;53.606;9.872;2023-10-31T11:12:44;11.50;99.90
13806;DHT22;6974;53.606;9.872;2023-10-31T11:15:16;11.50;99.90
13806;DHT22;6974;53.606;9.872;2023-10-31T11:17:44;11.50;99.90
13806;DHT22;6974;53.606;9.872;2023-10-31T11:20:14;11.50;99.90
13806;DHT22;6974;53.606;9.872;2023-10-31T11:22:43;11.40;99.90
13806;DHT22;6974;53.606;9.872;2023-10-31T11:25:13;11.40;99.90
13806;DHT22;6974;53.606;9.872;2023-10-31T11:27:41;11.50;99.90
13806;DHT22;6974;53.606;9.872;2023-10-31T11:30:21;11.60;99.90
13806;DHT22;6974;53.606;9.872;2023-10-31T11:32:52;11.60;99.90
13806;DHT22;6974;53.606;9.872;2023-10-31T11:35:19;11.70;99.90
13806;DHT22;6974;53.606;9.872;2023-10-31T11:37:49;11.80;99.90
13806;DHT22;6974;53.606;9.872;2023-10-31T11:40:16;11.80;99.90
13806;DHT22;6974;53.606;9.872;2023-10-31T11:42:46;11.80;99.90
13806;DHT22;6974;53.606;9.872;2023-10-31T11:45:27;11.80;99.90
13806;DHT22;6974;53.606;9.872;2023-10-31T11:47:55;11.90;99.90
13806;DHT22;6974;53.606;9.872;2023-10-31T11:50:24;11.90;99.90
13806;DHT22;6974;53.606;9.872;2023-10-31T11:53:05;12.00;99.90
13806;DHT22;6974;53.606;9.872;2023-10-31T11:55:33;12.00;99.90
13806;DHT22;6974;53.606;9.872;2023-10-31T11:58:13;12.10;99.90
13806;DHT22;6974;53.606;9.872;2023-10-31T12:00:41;12.00;99.90
13806;DHT22;6974;53.606;9.872;2023-10-31T12:03:08;12.10;99.90
13806;DHT22;6974;53.606;9.872;2023-10-31T12:05:37;12.10;99.90
13806;DHT22;6974;53.606;9.872;2023-10-31T12:08:04;12.10;99.90
13806;DHT22;6974;53.606;9.872;2023-10-31T12:10:31;12.20;99.90
13806;DHT22;6974;53.606;9.872;2023-10-31T12:12:59;12.20;99.90
13806;DHT22;6974;53.606;9.872;2023-10-31T12:15:26;12.30;99.90
13806;DHT22;6974;53.606;9.872;2023-10-31T12:17:59;12.30;99.90
13806;DHT22;6974;53.606;9.872;2023-10-31T12:20:26;12.40;99.90
13806;DHT22;6974;53.606;9.872;2023-10-31T12:23:10;12.40;99.90
13806;DHT22;6974;53.606;9.872;2023-10-31T12:25:46;12.50;99.90
13806;DHT22;6974;53.606;9.872;2023-10-31T12:28:17;12.60;99.90
13806;DHT22;6974;53.606;9.872;2023-10-31T12:30:45;12.60;99.90
13806;DHT22;6974;53.606;9.872;2023-10-31T12:33:14;12.60;99.90
13806;DHT22;6974;53.606;9.872;2023-10-31T12:35:43;12.70;99.90
13806;DHT22;6974;53.606;9.872;2023-10-31T12:38:11;12.70;99.90
13806;DHT22;6974;53.606;9.872;2023-10-31T12:40:39;12.60;99.90
13806;DHT22;6974;53.606;9.872;2023-10-31T12:43:06;12.70;99.90
13806;DHT22;6974;53.606;9.872;2023-10-31T12:45:35;12.60;99.90
13806;DHT22;6974;53.606;9.872;2023-10-31T12:48:03;12.60;99.90
13806;DHT22;6974;53.606;9.872;2023-10-31T12:50:33;12.60;99.90
13806;DHT22;6974;53.606;9.872;2023-10-31T12:53:02;12.70;99.90
13806;DHT22;6974;53.606;9.872;2023-10-31T12:55:36;12.70;99.90
13806;DHT22;6974;53.606;9.872;2023-10-31T12:58:04;12.80;99.90
13806;DHT22;6974;53.606;9.872;2023-10-31T13:00:33;12.80;99.90
13806;DHT22;6974;53.606;9.872;2023-10-31T13:03:03;12.80;99.90
13806;DHT22;6974;53.606;9.872;2023-10-31T13:05:32;12.80;99.90
13806;DHT22;6974;53.606;9.872;2023-10-31T13:07:59;12.80;99.90
13806;DHT22;6974;53.606;9.872;2023-10-31T13:10:30;12.80;99.90
13806;DHT22;6974;53.606;9.872;2023-10-31T13:12:58;12.80;99.90
13806;DHT22;6974;53.606;9.872;2023-10-31T13:15:25;12.80;99.90
13806;DHT22;6974;53.606;9.872;2023-10-31T13:17:52;12.80;99.90
13806;DHT22;6974;53.606;9.872;2023-10-31T13:20:20;12.80;99.90
13806;DHT22;6974;53.606;9.872;2023-10-31T13:22:49;12.70;99.90
13806;DHT22;6974;53.606;9.872;2023-10-31T13:25:17;12.60;99.90
13806;DHT22;6974;53.606;9.872;2023-10-31T13:27:44;12.50;99.90
13806;DHT22;6974;53.606;9.872;2023-10-31T13:30:16;12.20;99.90
13806;DHT22;6974;53.606;9.872;2023-10-31T13:32:44;12.00;99.90
13806;DHT22;6974;53.606;9.872;2023-10-31T13:35:11;11.90;99.90
13806;DHT22;6974;53.606;9.872;2023-10-31T13:37:39;11.80;99.90
13806;DHT22;6974;53.606;9.872;2023-10-31T13:40:09;11.70;99.90
13806;DHT22;6974;53.606;9.872;2023-10-31T13:42:37;11.60;99.90
13806;DHT22;6974;53.606;9.872;2023-10-31T13:45:04;11.40;99.90
13806;DHT22;6974;53.606;9.872;2023-10-31T13:47:31;11.40;99.90
13806;DHT22;6974;53.606;9.872;2023-10-31T13:49:58;11.30;99.90
13806;DHT22;6974;53.606;9.872;2023-10-31T13:52:25;11.30;99.90
13806;DHT22;6974;53.606;9.872;2023-10-31T13:54:52;11.30;99.90
13806;DHT22;6974;53.606;9.872;2023-10-31T13:57:22;11.20;99.90
13806;DHT22;6974;53.606;9.872;2023-10-31T13:59:51;11.20;99.90
13806;DHT22;6974;53.606;9.872;2023-10-31T14:02:19;11.10;99.90
13806;DHT22;6974;53.606;9.872;2023-10-31T14:04:47;10.90;99.90
13806;DHT22;6974;53.606;9.872;2023-10-31T14:07:21;10.80;99.90
13806;DHT22;6974;53.606;9.872;2023-10-31T14:09:49;10.70;99.90
13806;DHT22;6974;53.606;9.872;2023-10-31T14:12:16;10.70;99.90
13806;DHT22;6974;53.606;9.872;2023-10-31T14:14:45;10.70;99.90
13806;DHT22;6974;53.606;9.872;2023-10-31T14:17:13;10.70;99.90
13806;DHT22;6974;53.606;9.872;2023-10-31T14:19:42;10.60;99.90
13806;DHT22;6974;53.606;9.872;2023-10-31T14:22:12;10.50;99.90
13806;DHT22;6974;53.606;9.872;2023-10-31T14:24:39;10.30;99.90
13806;DHT22;6974;53.606;9.872;2023-10-31T14:27:06;10.20;99.90
13806;DHT22;6974;53.606;9.872;2023-10-31T14:29:33;10.00;99.90
13806;DHT22;6974;53.606;9.872;2023-10-31T14:32:07;10.00;99.90
13806;DHT22;6974;53.606;9.872;2023-10-31T14:34:34;9.80;99.90
13806;DHT22;6974;53.606;9.872;2023-10-31T14:37:01;9.90;99.90
13806;DHT22;6974;53.606;9.872;2023-10-31T14:39:29;9.90;99.90
13806;DHT22;6974;53.606;9.872;2023-10-31T14:41:56;9.90;99.90
13806;DHT22;6974;53.606;9.872;2023-10-31T14:44:23;9.80;99.90
13806;DHT22;6974;53.606;9.872;2023-10-31T14:46:51;9.70;99.90
13806;DHT22;6974;53.606;9.872;2023-10-31T14:49:20;9.70;99.90
13806;DHT22;6974;53.606;9.872;2023-10-31T14:51:47;9.80;99.90
13806;DHT22;6974;53.606;9.872;2023-10-31T14:54:14;9.70;99.90
13806;DHT22;6974;53.606;9.872;2023-10-31T14:56:42;9.70;99.90
13806;DHT22;6974;53.606;9.872;2023-10-31T14:59:09;9.80;99.90
13806;DHT22;6974;53.606;9.872;2023-10-31T15:01:36;9.80;99.90
13806;DHT22;6974;53.606;9.872;2023-10-31T15:04:03;9.70;99.90
13806;DHT22;6974;53.606;9.872;2023-10-31T15:06:32;9.70;99.90
13806;DHT22;6974;53.606;9.872;2023-10-31T15:08:59;9.60;99.90
13806;DHT22;6974;53.606;9.872;2023-10-31T15:11:25;9.60;99.90
13806;DHT22;6974;53.606;9.872;2023-10-31T15:13:56;9.60;99.90
13806;DHT22;6974;53.606;9.872;2023-10-31T15:16:22;9.60;99.90
13806;DHT22;6974;53.606;9.872;2023-10-31T15:18:50;9.60;99.90
13806;DHT22;6974;53.606;9.872;2023-10-31T15:21:17;9.60;99.90
13806;DHT22;6974;53.606;9.872;2023-10-31T15:23:45;9.60;99.90
13806;DHT22;6974;53.606;9.872;2023-10-31T15:26:14;9.50;99.90
13806;DHT22;6974;53.606;9.872;2023-10-31T15:28:41;9.40;99.90
13806;DHT22;6974;53.606;9.872;2023-10-31T15:31:09;9.30;99.90
13806;DHT22;6974;53.606;9.872;2023-10-31T15:33:37;9.20;99.90
13806;DHT22;6974;53.606;9.872;2023-10-31T15:36:09;9.30;99.90
13806;DHT22;6974;53.606;9.872;2023-10-31T15:38:37;9.20;99.90
13806;DHT22;6974;53.606;9.872;2023-10-31T15:41:06;9.20;99.90
13806;DHT22;6974;53.606;9.872;2023-10-31T15:43:34;9.10;99.90
13806;DHT22;6974;53.606;9.872;2023-10-31T15:46:03;9.10;99.90
13806;DHT22;6974;53.606;9.872;2023-10-31T15:48:31;9.20;99.90
13806;DHT22;6974;53.606;9.872;2023-10-31T15:50:59;9.20;99.90
13806;DHT22;6974;53.606;9.872;2023-10-31T15:53:26;9.10;99.90